Time;durP1;ratioP1;P1;durP2;ratioP2;P2;SDS_P1;SDS_P2;PMS_P1;PMS_P2;Temp;Humidity;BMP_temperature;BMP_pressure;BME280_temperature;BME280_humidity;BME280_pressure;Samples;Min_cycle;Max_cycle;Signal;HPM_P1;HPM_P2
2022/10/17 00:01:08;;;;;;;;;;;23.80;57.50;;;;;;1571248;74;757;-57
2022/10/17 00:03:10;;;;;;;;;;;23.80;57.60;;;;;;1571281;74;725;-56
2022/10/17 00:05:11;;;;;;;;;;;23.80;57.60;;;;;;1570400;74;1492;-55
2022/10/17 00:07:13;;;;;;;;;;;23.80;57.70;;;;;;1580908;74;840;-52
2022/10/17 00:09:15;;;;;;;;;;;23.70;57.70;;;;;;1588870;74;802;-57
2022/10/17 00:11:18;;;;;;;;;;;23.70;57.70;;;;;;1570363;74;791;-57
2022/10/17 00:13:20;;;;;;;;;;;23.80;57.50;;;;;;1585733;74;695;-53
2022/10/17 00:15:22;;;;;;;;;;;23.80;57.50;;;;;;1582419;74;1100;-56
2022/10/17 00:17:24;;;;;;;;;;;23.80;57.40;;;;;;1582141;74;1929;-57
2022/10/17 00:19:25;;;;;;;;;;;23.70;57.40;;;;;;1579145;74;1568;-57
2022/10/17 00:21:28;;;;;;;;;;;23.70;57.50;;;;;;1572559;74;776;-57
2022/10/17 00:23:29;;;;;;;;;;;23.70;57.60;;;;;;1574778;74;667;-56
2022/10/17 00:25:31;;;;;;;;;;;23.70;57.60;;;;;;1589422;74;1115;-56
2022/10/17 00:27:39;;;;;;;;;;;23.70;57.80;;;;;;1584011;74;794;-54
2022/10/17 00:29:41;;;;;;;;;;;23.80;57.60;;;;;;1585388;74;769;-55
2022/10/17 00:31:43;;;;;;;;;;;23.80;57.40;;;;;;1578201;74;720;-52
2022/10/17 00:33:45;;;;;;;;;;;23.80;57.40;;;;;;1581135;74;1527;-57
2022/10/17 00:35:47;;;;;;;;;;;23.80;57.40;;;;;;1569870;74;1095;-56
2022/10/17 00:37:49;;;;;;;;;;;23.70;57.30;;;;;;1585190;74;1934;-55
2022/10/17 00:39:51;;;;;;;;;;;23.80;57.40;;;;;;1566777;74;756;-54
2022/10/17 00:41:53;;;;;;;;;;;23.70;57.40;;;;;;1584531;74;788;-56
2022/10/17 00:44:04;;;;;;;;;;;23.70;57.50;;;;;;1576338;74;723;-51
2022/10/17 00:46:06;;;;;;;;;;;23.70;57.60;;;;;;1573763;74;1143;-56
2022/10/17 00:48:09;;;;;;;;;;;23.70;57.60;;;;;;1584396;74;1608;-57
2022/10/17 00:50:10;;;;;;;;;;;23.70;57.70;;;;;;1572857;74;785;-57
2022/10/17 00:52:16;;;;;;;;;;;23.60;57.70;;;;;;1575405;74;856;-56
2022/10/17 00:54:18;;;;;;;;;;;23.60;57.80;;;;;;1582078;74;737;-57
2022/10/17 00:56:20;;;;;;;;;;;23.60;57.80;;;;;;1578564;74;1102;-56
2022/10/17 00:58:22;;;;;;;;;;;23.60;57.90;;;;;;1572189;74;1939;-57
2022/10/17 01:00:24;;;;;;;;;;;23.70;58.10;;;;;;1580765;74;766;-56
2022/10/17 01:02:26;;;;;;;;;;;23.70;58.00;;;;;;1573653;74;1682;-55
2022/10/17 01:04:28;;;;;;;;;;;23.70;57.90;;;;;;1578702;74;716;-54
2022/10/17 01:06:30;;;;;;;;;;;23.70;57.80;;;;;;1573297;74;1099;-57
2022/10/17 01:08:32;;;;;;;;;;;23.70;57.70;;;;;;1578593;74;743;-57
2022/10/17 01:10:35;;;;;;;;;;;23.80;57.60;;;;;;1592689;74;685;-57
2022/10/17 01:12:38;;;;;;;;;;;23.80;57.60;;;;;;1582195;74;738;-53
2022/10/17 01:14:42;;;;;;;;;;;23.80;57.60;;;;;;1582104;74;734;-55
2022/10/17 01:16:51;;;;;;;;;;;23.70;57.60;;;;;;1573765;74;1597;-57
2022/10/17 01:18:53;;;;;;;;;;;23.70;57.60;;;;;;1573612;74;1966;-56
2022/10/17 01:21:13;;;;;;;;;;;23.70;57.50;;;;;;1575639;74;1768;-54
2022/10/17 01:23:20;;;;;;;;;;;23.70;57.40;;;;;;1587799;74;770;-52
2022/10/17 01:25:35;;;;;;;;;;;23.80;57.60;;;;;;1583578;74;1099;-52
2022/10/17 01:27:50;;;;;;;;;;;23.70;57.40;;;;;;1576344;74;1998;-56
2022/10/17 01:29:57;;;;;;;;;;;23.70;57.50;;;;;;1575854;74;1508;-55
2022/10/17 01:31:59;;;;;;;;;;;23.80;57.40;;;;;;1567193;74;751;-56
2022/10/17 01:34:06;;;;;;;;;;;23.70;57.50;;;;;;1580974;74;775;-56
2022/10/17 01:36:12;;;;;;;;;;;23.70;57.40;;;;;;1567532;74;1175;-56
2022/10/17 01:38:15;;;;;;;;;;;23.70;57.40;;;;;;1575013;74;1937;-56
2022/10/17 01:40:22;;;;;;;;;;;23.90;57.50;;;;;;1569900;74;1628;-56
2022/10/17 01:42:25;;;;;;;;;;;23.80;57.30;;;;;;1582223;74;945;-57
2022/10/17 01:44:31;;;;;;;;;;;23.70;57.30;;;;;;1574060;74;1593;-56
2022/10/17 01:46:35;;;;;;;;;;;23.80;57.30;;;;;;1579969;74;1144;-55
2022/10/17 01:48:37;;;;;;;;;;;23.80;57.30;;;;;;1581803;74;735;-57
2022/10/17 01:50:40;;;;;;;;;;;23.70;57.30;;;;;;1584771;74;749;-56
2022/10/17 01:52:44;;;;;;;;;;;23.80;57.30;;;;;;1565560;74;705;-55
2022/10/17 01:54:47;;;;;;;;;;;23.80;57.30;;;;;;1587482;74;782;-57
2022/10/17 01:56:49;;;;;;;;;;;23.80;57.30;;;;;;1579893;74;1104;-54
2022/10/17 01:58:53;;;;;;;;;;;23.70;57.40;;;;;;1555505;74;1951;-56
2022/10/17 02:00:54;;;;;;;;;;;23.80;57.50;;;;;;1574182;74;753;-55
2022/10/17 02:03:00;;;;;;;;;;;23.60;57.50;;;;;;1579556;74;729;-56
2022/10/17 02:05:01;;;;;;;;;;;23.70;57.50;;;;;;1575626;74;1117;-56
2022/10/17 02:07:08;;;;;;;;;;;23.70;57.40;;;;;;1564906;74;724;-55
2022/10/17 02:09:20;;;;;;;;;;;23.70;57.50;;;;;;1572503;74;1060;-56
2022/10/17 02:11:22;;;;;;;;;;;23.60;57.60;;;;;;1582912;74;1295;-55
2022/10/17 02:13:43;;;;;;;;;;;23.60;57.80;;;;;;1588277;74;738;-57
2022/10/17 02:16:03;;;;;;;;;;;23.60;58.00;;;;;;1574153;74;1122;-57
2022/10/17 02:18:06;;;;;;;;;;;23.60;58.10;;;;;;1589801;74;1927;-57
2022/10/17 02:20:19;;;;;;;;;;;23.50;58.40;;;;;;1582370;74;1919;-57
2022/10/17 02:22:25;;;;;;;;;;;23.50;58.60;;;;;;1572173;74;686;-57
2022/10/17 02:24:31;;;;;;;;;;;23.40;58.60;;;;;;1575296;74;1921;-56
2022/10/17 02:26:35;;;;;;;;;;;23.40;58.60;;;;;;1561298;74;1656;-57
2022/10/17 02:28:53;;;;;;;;;;;23.30;58.80;;;;;;1577363;74;756;-57
2022/10/17 02:30:57;;;;;;;;;;;23.40;58.70;;;;;;1584322;74;1948;-57
2022/10/17 02:33:00;;;;;;;;;;;23.40;58.80;;;;;;1585298;74;687;-57
2022/10/17 02:35:02;;;;;;;;;;;23.30;58.90;;;;;;1587908;74;1154;-57
2022/10/17 02:37:04;;;;;;;;;;;23.30;59.00;;;;;;1587075;74;768;-57
2022/10/17 02:39:06;;;;;;;;;;;23.30;59.30;;;;;;1589436;74;1925;-57
2022/10/17 02:41:09;;;;;;;;;;;23.30;59.30;;;;;;1582806;74;1511;-57
2022/10/17 02:43:11;;;;;;;;;;;23.30;59.30;;;;;;1572289;74;788;-57
2022/10/17 02:45:13;;;;;;;;;;;23.20;59.30;;;;;;1572160;74;1144;-57
2022/10/17 02:47:28;;;;;;;;;;;23.30;59.30;;;;;;1579236;74;851;-56
2022/10/17 02:49:34;;;;;;;;;;;23.30;59.30;;;;;;1580886;74;945;-57
2022/10/17 02:51:44;;;;;;;;;;;23.30;59.30;;;;;;1579685;74;728;-57
2022/10/17 02:53:47;;;;;;;;;;;23.20;59.30;;;;;;1584942;74;1526;-57
2022/10/17 02:55:57;;;;;;;;;;;23.20;59.40;;;;;;1579005;74;1146;-57
2022/10/17 02:58:03;;;;;;;;;;;23.30;59.50;;;;;;1581879;74;1941;-57
2022/10/17 03:00:06;;;;;;;;;;;23.20;59.50;;;;;;1576984;73;1812;-57
2022/10/17 03:02:08;;;;;;;;;;;23.20;59.50;;;;;;1579722;73;720;-57
2022/10/17 03:04:13;;;;;;;;;;;23.30;59.50;;;;;;1583343;73;699;-57
2022/10/17 03:06:15;;;;;;;;;;;23.30;59.40;;;;;;1578885;74;1122;-57
2022/10/17 03:08:17;;;;;;;;;;;23.30;59.40;;;;;;1575251;73;1536;-56
2022/10/17 03:10:19;;;;;;;;;;;23.30;59.50;;;;;;1579834;73;813;-56
2022/10/17 03:12:21;;;;;;;;;;;23.30;59.50;;;;;;1579678;73;736;-56
2022/10/17 03:14:22;;;;;;;;;;;23.30;59.50;;;;;;1579981;73;838;-56
2022/10/17 03:16:24;;;;;;;;;;;23.30;59.60;;;;;;1578578;73;1157;-56
2022/10/17 03:18:26;;;;;;;;;;;23.30;59.40;;;;;;1581559;73;1952;-57
2022/10/17 03:20:28;;;;;;;;;;;23.30;59.40;;;;;;1584296;73;723;-56
2022/10/17 03:22:30;;;;;;;;;;;23.30;59.40;;;;;;1580399;73;1506;-56
2022/10/17 03:24:32;;;;;;;;;;;23.40;59.40;;;;;;1583467;73;894;-57
2022/10/17 03:26:34;;;;;;;;;;;23.40;59.30;;;;;;1576786;73;1175;-57
2022/10/17 03:28:35;;;;;;;;;;;23.50;59.40;;;;;;1583139;74;786;-56
2022/10/17 03:30:38;;;;;;;;;;;23.50;59.20;;;;;;1584195;73;785;-57
2022/10/17 03:32:39;;;;;;;;;;;23.40;59.00;;;;;;1581450;73;740;-55
2022/10/17 03:34:41;;;;;;;;;;;23.50;58.90;;;;;;1578613;73;719;-56
2022/10/17 03:36:43;;;;;;;;;;;23.50;58.70;;;;;;1581903;73;1558;-56
2022/10/17 03:38:45;;;;;;;;;;;23.50;58.60;;;;;;1585591;73;1996;-56
2022/10/17 03:40:49;;;;;;;;;;;23.60;58.50;;;;;;1583263;73;906;-56
2022/10/17 03:42:51;;;;;;;;;;;23.60;58.40;;;;;;1587251;74;1729;-57
2022/10/17 03:44:52;;;;;;;;;;;23.60;58.40;;;;;;1578901;73;799;-56
2022/10/17 03:46:54;;;;;;;;;;;23.60;58.40;;;;;;1580967;73;1144;-56
2022/10/17 03:48:56;;;;;;;;;;;23.60;58.40;;;;;;1577089;73;658;-57
2022/10/17 03:51:02;;;;;;;;;;;23.60;58.20;;;;;;1573753;73;1621;-57
2022/10/17 03:53:04;;;;;;;;;;;23.60;58.20;;;;;;1579959;73;773;-57
2022/10/17 03:55:06;;;;;;;;;;;23.60;58.20;;;;;;1581246;73;1136;-57
2022/10/17 03:57:07;;;;;;;;;;;23.70;58.40;;;;;;1578594;73;727;-58
2022/10/17 03:59:11;;;;;;;;;;;23.70;58.20;;;;;;1570615;73;1946;-56
2022/10/17 04:01:13;;;;;;;;;;;23.70;58.10;;;;;;1583682;74;794;-57
2022/10/17 04:03:15;;;;;;;;;;;23.70;58.40;;;;;;1581856;73;775;-56
2022/10/17 04:05:17;;;;;;;;;;;23.60;58.30;;;;;;1589688;73;1479;-57
2022/10/17 04:07:19;;;;;;;;;;;23.60;58.30;;;;;;1588050;73;708;-57
2022/10/17 04:09:21;;;;;;;;;;;23.50;58.50;;;;;;1582092;73;776;-57
2022/10/17 04:11:23;;;;;;;;;;;23.50;58.50;;;;;;1584244;73;812;-56
2022/10/17 04:13:24;;;;;;;;;;;23.50;58.60;;;;;;1590770;73;733;-57
2022/10/17 04:15:26;;;;;;;;;;;23.50;58.70;;;;;;1585185;73;1156;-57
2022/10/17 04:17:29;;;;;;;;;;;23.50;58.80;;;;;;1586168;73;816;-57
2022/10/17 04:19:31;;;;;;;;;;;23.50;58.90;;;;;;1575736;74;1935;-57
2022/10/17 04:21:33;;;;;;;;;;;23.50;58.90;;;;;;1582246;74;755;-57
2022/10/17 04:23:35;;;;;;;;;;;23.50;58.90;;;;;;1584696;73;673;-56
2022/10/17 04:25:37;;;;;;;;;;;23.50;58.80;;;;;;1584544;73;1131;-56
2022/10/17 04:27:39;;;;;;;;;;;23.40;58.80;;;;;;1579405;73;937;-55
2022/10/17 04:29:42;;;;;;;;;;;23.40;58.90;;;;;;1582345;73;731;-57
2022/10/17 04:31:44;;;;;;;;;;;23.40;59.00;;;;;;1583347;73;786;-57
2022/10/17 04:33:47;;;;;;;;;;;23.50;59.20;;;;;;1585625;73;807;-56
2022/10/17 04:35:56;;;;;;;;;;;23.50;59.00;;;;;;1589240;73;1129;-57
2022/10/17 04:37:58;;;;;;;;;;;23.50;59.10;;;;;;1580347;73;1778;-57
2022/10/17 04:40:00;;;;;;;;;;;23.40;59.10;;;;;;1594252;73;1925;-59
2022/10/17 04:42:02;;;;;;;;;;;23.40;59.40;;;;;;1581990;74;738;-59
2022/10/17 04:44:04;;;;;;;;;;;23.40;59.60;;;;;;1575861;74;769;-59
2022/10/17 04:46:07;;;;;;;;;;;23.30;59.70;;;;;;1583617;73;1688;-59
2022/10/17 04:48:11;;;;;;;;;;;23.30;59.60;;;;;;1579232;73;1801;-59
2022/10/17 04:50:13;;;;;;;;;;;23.40;59.40;;;;;;1571540;73;1701;-58
2022/10/17 04:52:14;;;;;;;;;;;23.40;58.80;;;;;;1580309;74;717;-58
2022/10/17 04:54:16;;;;;;;;;;;23.30;59.40;;;;;;1576383;73;780;-58
2022/10/17 04:56:19;;;;;;;;;;;23.50;59.40;;;;;;1585872;73;1156;-58
2022/10/17 04:58:21;;;;;;;;;;;23.60;59.10;;;;;;1579408;74;740;-60
2022/10/17 05:00:23;;;;;;;;;;;23.50;58.80;;;;;;1588655;73;1931;-59
2022/10/17 05:02:25;;;;;;;;;;;23.50;59.00;;;;;;1578092;74;731;-58
2022/10/17 05:04:27;;;;;;;;;;;23.60;58.70;;;;;;1579064;73;732;-59
2022/10/17 05:06:29;;;;;;;;;;;23.60;58.40;;;;;;1586712;74;1137;-58
2022/10/17 05:08:30;;;;;;;;;;;23.60;58.10;;;;;;1573632;73;695;-58
2022/10/17 05:10:39;;;;;;;;;;;23.70;58.10;;;;;;1572447;73;774;-59
2022/10/17 05:12:40;;;;;;;;;;;23.70;58.10;;;;;;1581306;73;705;-58
2022/10/17 05:14:42;;;;;;;;;;;23.60;57.90;;;;;;1578828;73;1535;-58
2022/10/17 05:16:44;;;;;;;;;;;23.60;57.90;;;;;;1585349;73;1147;-60
2022/10/17 05:18:49;;;;;;;;;;;23.60;57.90;;;;;;1578812;73;1942;-59
2022/10/17 05:20:51;;;;;;;;;;;23.60;57.90;;;;;;1582798;73;755;-58
2022/10/17 05:22:53;;;;;;;;;;;23.60;57.80;;;;;;1574158;73;732;-58
2022/10/17 05:24:55;;;;;;;;;;;23.60;57.90;;;;;;1587121;74;734;-60
2022/10/17 05:26:57;;;;;;;;;;;23.50;57.90;;;;;;1575652;73;702;-59
2022/10/17 05:29:01;;;;;;;;;;;23.60;57.90;;;;;;1571451;73;1525;-60
2022/10/17 05:31:07;;;;;;;;;;;23.60;57.80;;;;;;1575222;73;744;-58
2022/10/17 05:33:09;;;;;;;;;;;23.60;57.70;;;;;;1577816;73;699;-58
2022/10/17 05:35:11;;;;;;;;;;;23.50;57.80;;;;;;1584465;73;1159;-58
2022/10/17 05:37:13;;;;;;;;;;;23.60;57.80;;;;;;1574067;73;703;-60
2022/10/17 05:39:18;;;;;;;;;;;23.60;57.70;;;;;;1583927;73;1937;-58
2022/10/17 05:41:18;;;;;;;;;;;23.40;57.90;;;;;;1569606;73;1710;-60
2022/10/17 05:43:20;;;;;;;;;;;23.30;58.10;;;;;;1570265;73;1541;-57
2022/10/17 05:45:22;;;;;;;;;;;23.30;58.40;;;;;;1585579;73;1167;-60
2022/10/17 05:47:24;;;;;;;;;;;23.30;58.50;;;;;;1590147;73;763;-57
2022/10/17 05:49:26;;;;;;;;;;;23.50;58.20;;;;;;1576023;73;733;-59
2022/10/17 05:51:28;;;;;;;;;;;23.50;57.80;;;;;;1573865;73;875;-59
2022/10/17 05:53:30;;;;;;;;;;;23.60;57.60;;;;;;1583018;73;704;-59
2022/10/17 05:55:32;;;;;;;;;;;23.60;57.60;;;;;;1584524;74;1116;-58
2022/10/17 05:57:34;;;;;;;;;;;23.50;57.40;;;;;;1568900;73;1581;-58
2022/10/17 05:59:36;;;;;;;;;;;23.50;57.50;;;;;;1577240;73;1933;-58
2022/10/17 06:01:38;;;;;;;;;;;23.40;57.50;;;;;;1578165;73;686;-59
2022/10/17 06:03:40;;;;;;;;;;;23.30;57.50;;;;;;1583162;73;735;-59
2022/10/17 06:05:42;;;;;;;;;;;23.30;57.60;;;;;;1584424;73;1101;-60
2022/10/17 06:07:44;;;;;;;;;;;23.30;57.60;;;;;;1582777;73;664;-59
2022/10/17 06:09:46;;;;;;;;;;;23.20;57.50;;;;;;1588733;73;779;-58
2022/10/17 06:11:47;;;;;;;;;;;23.20;57.60;;;;;;1578885;73;1382;-59
2022/10/17 06:13:49;;;;;;;;;;;23.10;57.50;;;;;;1583072;74;817;-60
2022/10/17 06:15:51;;;;;;;;;;;23.20;57.50;;;;;;1580527;73;1146;-58
2022/10/17 06:17:53;;;;;;;;;;;23.10;57.60;;;;;;1586812;73;712;-60
2022/10/17 06:19:56;;;;;;;;;;;23.10;57.60;;;;;;1578012;74;1948;-59
2022/10/17 06:21:57;;;;;;;;;;;23.10;57.30;;;;;;1573006;73;777;-59
2022/10/17 06:23:59;;;;;;;;;;;23.10;57.30;;;;;;1578602;73;752;-56
2022/10/17 06:26:01;;;;;;;;;;;23.10;57.30;;;;;;1576275;73;1717;-58
2022/10/17 06:28:03;;;;;;;;;;;23.20;57.20;;;;;;1581196;73;791;-58
2022/10/17 06:30:06;;;;;;;;;;;23.10;57.30;;;;;;1582796;73;779;-58
2022/10/17 06:32:07;;;;;;;;;;;23.10;57.20;;;;;;1585215;73;825;-59
2022/10/17 06:34:09;;;;;;;;;;;23.10;57.20;;;;;;1588864;73;914;-58
2022/10/17 06:36:12;;;;;;;;;;;23.10;57.10;;;;;;1585018;73;1139;-58
2022/10/17 06:38:14;;;;;;;;;;;23.10;57.10;;;;;;1574324;73;788;-58
2022/10/17 06:40:16;;;;;;;;;;;23.10;57.10;;;;;;1580678;73;1947;-55
2022/10/17 06:42:18;;;;;;;;;;;23.10;57.10;;;;;;1579510;73;753;-58
2022/10/17 06:44:21;;;;;;;;;;;23.00;57.00;;;;;;1589643;73;708;-58
2022/10/17 06:46:25;;;;;;;;;;;23.00;57.00;;;;;;1573767;73;1079;-58
2022/10/17 06:48:26;;;;;;;;;;;23.00;57.10;;;;;;1584559;74;1658;-58
2022/10/17 06:50:28;;;;;;;;;;;23.00;57.10;;;;;;1586516;73;708;-58
2022/10/17 06:52:30;;;;;;;;;;;23.00;57.00;;;;;;1587437;73;1316;-56
2022/10/17 06:54:32;;;;;;;;;;;23.00;57.00;;;;;;1586387;73;785;-54
2022/10/17 06:56:33;;;;;;;;;;;23.00;57.00;;;;;;1579040;73;1126;-59
2022/10/17 06:58:41;;;;;;;;;;;23.00;57.00;;;;;;1589272;73;772;-58
2022/10/17 07:00:40;;;;;;;;;;;23.00;57.00;;;;;;1584780;73;1917;-58
2022/10/17 07:02:42;;;;;;;;;;;23.00;57.00;;;;;;1582473;74;736;-58
2022/10/17 07:04:46;;;;;;;;;;;23.00;56.90;;;;;;1580302;73;830;-59
2022/10/17 07:06:48;;;;;;;;;;;23.00;57.00;;;;;;1577467;74;1493;-58
2022/10/17 07:08:50;;;;;;;;;;;23.00;57.00;;;;;;1572829;74;806;-57
2022/10/17 07:10:52;;;;;;;;;;;23.00;56.90;;;;;;1580810;73;1084;-57
2022/10/17 07:12:53;;;;;;;;;;;23.00;56.90;;;;;;1573064;73;814;-56
2022/10/17 07:14:55;;;;;;;;;;;23.00;56.80;;;;;;1576642;73;783;-52
2022/10/17 07:16:58;;;;;;;;;;;22.90;56.80;;;;;;1576078;73;800;-58
2022/10/17 07:19:00;;;;;;;;;;;23.00;56.80;;;;;;1588013;73;769;-56
2022/10/17 07:21:02;;;;;;;;;;;23.00;56.80;;;;;;1583747;73;1949;-58
2022/10/17 07:23:04;;;;;;;;;;;23.00;56.80;;;;;;1584913;73;733;-57
2022/10/17 07:25:07;;;;;;;;;;;23.00;56.80;;;;;;1576385;74;1177;-53
2022/10/17 07:27:09;;;;;;;;;;;23.00;56.80;;;;;;1580417;73;921;-58
2022/10/17 07:29:10;;;;;;;;;;;23.00;56.80;;;;;;1587720;74;840;-55
2022/10/17 07:31:13;;;;;;;;;;;22.90;56.80;;;;;;1580730;73;784;-58
2022/10/17 07:33:15;;;;;;;;;;;22.90;56.80;;;;;;1585498;73;675;-58
2022/10/17 07:35:17;;;;;;;;;;;23.00;56.80;;;;;;1588476;73;1550;-58
2022/10/17 07:37:19;;;;;;;;;;;22.90;56.80;;;;;;1575123;73;750;-55
2022/10/17 07:39:22;;;;;;;;;;;23.00;56.70;;;;;;1577808;74;722;-58
2022/10/17 07:41:23;;;;;;;;;;;23.00;56.60;;;;;;1584766;74;1941;-55
2022/10/17 07:43:25;;;;;;;;;;;22.90;56.60;;;;;;1577217;74;762;-58
2022/10/17 07:45:27;;;;;;;;;;;23.00;56.50;;;;;;1582392;73;1156;-58
2022/10/17 07:47:29;;;;;;;;;;;23.10;56.60;;;;;;1580290;73;742;-57
2022/10/17 07:49:31;;;;;;;;;;;23.00;56.40;;;;;;1594657;73;1530;-60
2022/10/17 07:51:33;;;;;;;;;;;23.10;56.40;;;;;;1604145;73;772;-57
2022/10/17 07:53:38;;;;;;;;;;;23.10;56.40;;;;;;1575429;73;687;-58
2022/10/17 07:55:40;;;;;;;;;;;23.10;56.00;;;;;;1584952;73;1094;-60
2022/10/17 07:57:42;;;;;;;;;;;23.10;55.90;;;;;;1588209;73;768;-57
2022/10/17 07:59:44;;;;;;;;;;;23.10;56.00;;;;;;1589446;73;1942;-59
2022/10/17 08:01:46;;;;;;;;;;;23.20;55.70;;;;;;1588983;73;788;-58
2022/10/17 08:03:48;;;;;;;;;;;23.20;55.30;;;;;;1584587;73;1522;-58
2022/10/17 08:05:49;;;;;;;;;;;23.30;55.20;;;;;;1579501;73;1147;-59
2022/10/17 08:07:51;;;;;;;;;;;23.30;55.00;;;;;;1572689;73;770;-57
2022/10/17 08:09:53;;;;;;;;;;;23.40;54.80;;;;;;1583241;73;826;-58
2022/10/17 08:11:55;;;;;;;;;;;23.50;54.70;;;;;;1579460;73;786;-57
2022/10/17 08:13:57;;;;;;;;;;;23.50;54.60;;;;;;1577874;73;794;-58
2022/10/17 08:16:00;;;;;;;;;;;23.60;54.50;;;;;;1578876;73;1151;-57
2022/10/17 08:18:02;;;;;;;;;;;23.60;54.40;;;;;;1578598;74;1572;-53
2022/10/17 08:20:04;;;;;;;;;;;23.70;54.40;;;;;;1573846;73;1916;-58
2022/10/17 08:22:06;;;;;;;;;;;23.70;54.20;;;;;;1582725;73;669;-56
2022/10/17 08:24:08;;;;;;;;;;;23.80;54.00;;;;;;1583886;73;774;-58
2022/10/17 08:26:12;;;;;;;;;;;23.90;54.00;;;;;;1580862;73;1137;-57
2022/10/17 08:28:13;;;;;;;;;;;23.70;53.80;;;;;;1587886;73;900;-60
2022/10/17 08:30:15;;;;;;;;;;;23.80;53.70;;;;;;1578145;73;731;-59
2022/10/17 08:32:18;;;;;;;;;;;23.90;53.80;;;;;;1585096;73;1524;-58
2022/10/17 08:34:19;;;;;;;;;;;23.90;53.80;;;;;;1580975;73;720;-55
2022/10/17 08:36:21;;;;;;;;;;;23.90;53.60;;;;;;1590207;73;1169;-58
2022/10/17 08:38:23;;;;;;;;;;;23.90;53.60;;;;;;1578212;73;779;-58
2022/10/17 08:40:25;;;;;;;;;;;23.90;53.40;;;;;;1582002;73;1940;-58
2022/10/17 08:42:32;;;;;;;;;;;23.90;53.40;;;;;;1569682;73;762;-59
2022/10/17 08:44:44;;;;;;;;;;;23.90;53.40;;;;;;1575418;73;1909;-57
2022/10/17 08:46:47;;;;;;;;;;;23.90;53.30;;;;;;1578024;73;2001;-58
2022/10/17 08:48:49;;;;;;;;;;;23.90;53.30;;;;;;1582196;73;802;-54
2022/10/17 08:50:58;;;;;;;;;;;23.90;53.10;;;;;;1583781;73;738;-55
2022/10/17 08:53:04;;;;;;;;;;;23.90;53.10;;;;;;1579390;73;753;-57
2022/10/17 08:55:17;;;;;;;;;;;24.00;53.00;;;;;;1581538;73;1137;-53
2022/10/17 08:57:19;;;;;;;;;;;24.00;53.00;;;;;;1585167;73;829;-58
2022/10/17 08:59:22;;;;;;;;;;;24.00;52.80;;;;;;1582021;73;1503;-53
2022/10/17 09:01:32;;;;;;;;;;;24.00;52.80;;;;;;1577642;73;1930;-57
2022/10/17 09:03:36;;;;;;;;;;;24.00;52.80;;;;;;1575965;73;719;-56
2022/10/17 09:05:45;;;;;;;;;;;24.00;52.80;;;;;;1579778;73;1936;-57
2022/10/17 09:08:04;;;;;;;;;;;24.00;52.50;;;;;;1580686;73;1321;-58
2022/10/17 09:10:10;;;;;;;;;;;24.00;52.50;;;;;;1580000;73;682;-54
2022/10/17 09:12:32;;;;;;;;;;;24.10;52.50;;;;;;1582596;73;858;-58
2022/10/17 09:14:44;;;;;;;;;;;24.00;52.40;;;;;;1588094;73;1985;-58
2022/10/17 09:16:57;;;;;;;;;;;24.00;52.50;;;;;;1579650;73;1098;-58
2022/10/17 09:19:03;;;;;;;;;;;24.00;52.50;;;;;;1578986;73;1894;-58
2022/10/17 09:21:06;;;;;;;;;;;24.00;52.50;;;;;;1557961;73;1942;-58
2022/10/17 09:23:13;;;;;;;;;;;24.00;52.50;;;;;;1586420;73;1565;-58
2022/10/17 09:25:15;;;;;;;;;;;24.00;52.40;;;;;;1582699;73;1163;-58
2022/10/17 09:27:19;;;;;;;;;;;24.00;52.50;;;;;;1586508;73;1538;-58
2022/10/17 09:29:24;;;;;;;;;;;24.00;52.40;;;;;;1578304;73;1541;-58
2022/10/17 09:31:28;;;;;;;;;;;24.00;52.30;;;;;;1586824;73;742;-55
2022/10/17 09:33:31;;;;;;;;;;;24.10;52.20;;;;;;1585223;73;706;-58
2022/10/17 09:35:34;;;;;;;;;;;24.10;52.20;;;;;;1581836;73;1850;-57
2022/10/17 09:37:36;;;;;;;;;;;24.20;52.10;;;;;;1578632;73;760;-57
2022/10/17 09:39:37;;;;;;;;;;;24.10;52.10;;;;;;1576110;73;705;-58
2022/10/17 09:41:40;;;;;;;;;;;24.20;52.10;;;;;;1584149;73;1935;-57
2022/10/17 09:43:42;;;;;;;;;;;24.20;52.00;;;;;;1580338;73;696;-58
2022/10/17 09:45:49;;;;;;;;;;;24.20;51.80;;;;;;1581430;73;1152;-58
2022/10/17 09:47:56;;;;;;;;;;;24.20;51.80;;;;;;1586644;73;1864;-56
2022/10/17 09:49:57;;;;;;;;;;;24.20;51.80;;;;;;1577873;73;796;-54
2022/10/17 09:52:00;;;;;;;;;;;24.20;51.80;;;;;;1585847;73;748;-57
2022/10/17 09:54:07;;;;;;;;;;;24.20;51.80;;;;;;1584746;73;772;-57
2022/10/17 09:56:10;;;;;;;;;;;24.20;51.70;;;;;;1581681;73;2056;-59
2022/10/17 09:58:12;;;;;;;;;;;24.20;51.70;;;;;;1580956;73;1768;-55
2022/10/17 10:00:16;;;;;;;;;;;24.20;51.50;;;;;;1587662;73;777;-55
2022/10/17 10:02:19;;;;;;;;;;;24.20;51.60;;;;;;1575035;73;2120;-58
2022/10/17 10:04:21;;;;;;;;;;;24.30;51.60;;;;;;1589174;73;771;-58
2022/10/17 10:06:23;;;;;;;;;;;24.40;51.50;;;;;;1578828;73;1146;-55
2022/10/17 10:08:29;;;;;;;;;;;24.30;51.40;;;;;;1580320;73;893;-56
2022/10/17 10:10:31;;;;;;;;;;;24.30;51.40;;;;;;1586442;73;1540;-57
2022/10/17 10:12:37;;;;;;;;;;;24.30;51.30;;;;;;1584902;73;962;-58
2022/10/17 10:14:39;;;;;;;;;;;24.30;51.40;;;;;;1575234;73;773;-57
2022/10/17 10:16:44;;;;;;;;;;;24.30;51.40;;;;;;1581046;73;1249;-57
2022/10/17 10:18:46;;;;;;;;;;;24.40;51.30;;;;;;1587186;73;721;-58
2022/10/17 10:20:48;;;;;;;;;;;24.30;51.30;;;;;;1587298;73;1915;-57
2022/10/17 10:23:08;;;;;;;;;;;24.30;51.30;;;;;;1554513;75;725;-55
2022/10/17 10:25:11;;;;;;;;;;;24.40;51.30;;;;;;1509734;78;1535;-59
2022/10/17 10:27:14;;;;;;;;;;;24.30;51.30;;;;;;1513589;76;938;-58
2022/10/17 10:29:29;;;;;;;;;;;24.40;51.30;;;;;;1509130;76;774;-57
2022/10/17 10:31:33;;;;;;;;;;;24.40;51.20;;;;;;1576994;73;675;-58
2022/10/17 10:33:36;;;;;;;;;;;24.30;51.10;;;;;;1587597;73;2236;-55
2022/10/17 10:35:38;;;;;;;;;;;24.40;51.00;;;;;;1582891;73;1176;-58
2022/10/17 10:37:42;;;;;;;;;;;24.40;51.10;;;;;;1580198;73;1584;-58
2022/10/17 10:39:48;;;;;;;;;;;24.50;51.20;;;;;;1581581;73;1832;-54
2022/10/17 10:41:50;;;;;;;;;;;24.30;51.10;;;;;;1579609;73;1899;-57
2022/10/17 10:43:52;;;;;;;;;;;24.30;51.00;;;;;;1583239;73;620;-54
2022/10/17 10:45:54;;;;;;;;;;;24.40;51.00;;;;;;1581990;74;1140;-55
2022/10/17 10:47:57;;;;;;;;;;;24.50;51.10;;;;;;1586184;73;703;-54
2022/10/17 10:50:17;;;;;;;;;;;24.50;51.00;;;;;;1584780;73;792;-58
2022/10/17 10:52:21;;;;;;;;;;;24.30;50.80;;;;;;1579918;73;1307;-58
2022/10/17 10:54:28;;;;;;;;;;;24.50;50.90;;;;;;1580629;73;769;-57
2022/10/17 10:56:34;;;;;;;;;;;24.40;50.80;;;;;;1577390;73;1133;-58
2022/10/17 10:58:41;;;;;;;;;;;24.30;50.80;;;;;;1577988;73;812;-58
2022/10/17 11:00:43;;;;;;;;;;;24.50;50.90;;;;;;1584399;73;1941;-57
2022/10/17 11:02:51;;;;;;;;;;;24.40;51.00;;;;;;1581236;73;727;-56
2022/10/17 11:04:54;;;;;;;;;;;24.30;51.00;;;;;;1570021;73;2011;-58
2022/10/17 11:07:10;;;;;;;;;;;24.40;51.00;;;;;;1574897;73;1588;-54
2022/10/17 11:09:13;;;;;;;;;;;24.40;51.00;;;;;;1585659;74;821;-57
2022/10/17 11:11:26;;;;;;;;;;;24.40;50.90;;;;;;1578964;73;715;-59
2022/10/17 11:13:29;;;;;;;;;;;24.50;51.00;;;;;;1547699;75;934;-58
2022/10/17 11:15:33;;;;;;;;;;;24.40;50.90;;;;;;1535546;75;1096;-59
2022/10/17 11:17:36;;;;;;;;;;;24.40;50.90;;;;;;1516946;76;1918;-57
2022/10/17 11:19:40;;;;;;;;;;;24.50;51.00;;;;;;1519806;77;1633;-58
2022/10/17 11:21:46;;;;;;;;;;;24.50;51.00;;;;;;1514989;77;1934;-59
2022/10/17 11:23:50;;;;;;;;;;;24.50;51.00;;;;;;1523698;76;736;-59
2022/10/17 11:25:52;;;;;;;;;;;24.40;51.00;;;;;;1521719;76;1087;-57
2022/10/17 11:27:53;;;;;;;;;;;24.30;51.00;;;;;;1511407;76;720;-59
2022/10/17 11:29:55;;;;;;;;;;;24.30;51.30;;;;;;1540736;75;648;-57
2022/10/17 11:31:58;;;;;;;;;;;24.30;51.40;;;;;;1544529;75;755;-56
2022/10/17 11:34:02;;;;;;;;;;;24.30;51.30;;;;;;1543562;75;1509;-56
2022/10/17 11:36:05;;;;;;;;;;;24.30;51.40;;;;;;1541420;75;1088;-57
2022/10/17 11:38:17;;;;;;;;;;;24.30;51.40;;;;;;1538910;75;824;-59
2022/10/17 11:40:20;;;;;;;;;;;24.20;51.40;;;;;;1551949;76;781;-59
2022/10/17 11:42:27;;;;;;;;;;;24.20;51.50;;;;;;1519852;76;1931;-59
2022/10/17 11:44:36;;;;;;;;;;;24.20;51.70;;;;;;1581998;73;768;-59
2022/10/17 11:46:38;;;;;;;;;;;24.20;51.80;;;;;;1587596;73;1897;-58
2022/10/17 11:48:45;;;;;;;;;;;24.10;51.90;;;;;;1575772;73;1577;-59
2022/10/17 11:50:48;;;;;;;;;;;24.10;51.90;;;;;;1588215;73;704;-58
2022/10/17 11:52:54;;;;;;;;;;;24.20;51.80;;;;;;1589719;73;744;-59
2022/10/17 11:54:57;;;;;;;;;;;24.10;51.90;;;;;;1574341;73;706;-57
2022/10/17 11:57:04;;;;;;;;;;;24.00;51.90;;;;;;1565551;73;602;-56
2022/10/17 11:59:25;;;;;;;;;;;24.00;52.00;;;;;;1576339;73;2054;-58
2022/10/17 12:01:29;;;;;;;;;;;24.00;52.10;;;;;;1572453;73;1927;-59
2022/10/17 12:03:41;;;;;;;;;;;24.00;52.20;;;;;;1584680;73;1702;-60
2022/10/17 12:05:54;;;;;;;;;;;24.00;52.20;;;;;;1578366;73;2138;-59
2022/10/17 12:07:57;;;;;;;;;;;24.10;52.30;;;;;;1575008;73;2130;-55
2022/10/17 12:10:17;;;;;;;;;;;24.10;52.20;;;;;;1576159;74;1979;-57
2022/10/17 12:12:21;;;;;;;;;;;24.10;52.10;;;;;;1586806;73;742;-56
2022/10/17 12:14:35;;;;;;;;;;;24.10;52.20;;;;;;1584962;73;1652;-56
2022/10/17 12:16:38;;;;;;;;;;;24.10;52.40;;;;;;1589835;73;1603;-57